sensor_id;sensor_type;location;lat;lon;timestamp;pressure;altitude;pressure_sealevel;temperature;humidity
75991;BME280;64673;52.276;10.560;2023-04-25T00:00:28;99826.94;;;7.71;73.23
75991;BME280;64673;52.276;10.560;2023-04-25T00:02:53;99827.47;;;7.68;73.37
75991;BME280;64673;52.276;10.560;2023-04-25T00:05:21;99825.56;;;7.74;73.55
75991;BME280;64673;52.276;10.560;2023-04-25T00:07:48;99823.16;;;7.67;73.67
75991;BME280;64673;52.276;10.560;2023-04-25T00:10:13;99832.56;;;7.65;74.21
75991;BME280;64673;52.276;10.560;2023-04-25T00:12:39;99835.78;;;7.62;74.00
75991;BME280;64673;52.276;10.560;2023-04-25T00:15:05;99828.53;;;7.57;74.29
75991;BME280;64673;52.276;10.560;2023-04-25T00:17:31;99837.91;;;7.65;73.97
75991;BME280;64673;52.276;10.560;2023-04-25T00:19:56;99834.16;;;7.56;74.16
75991;BME280;64673;52.276;10.560;2023-04-25T00:22:23;99835.78;;;7.62;74.03
75991;BME280;64673;52.276;10.560;2023-04-25T00:24:48;99840.06;;;7.53;74.10
75991;BME280;64673;52.276;10.560;2023-04-25T00:27:14;99836.84;;;7.61;74.75
75991;BME280;64673;52.276;10.560;2023-04-25T00:29:39;99840.63;;;7.60;74.83
75991;BME280;64673;52.276;10.560;2023-04-25T00:32:04;99836.31;;;7.59;74.75
75991;BME280;64673;52.276;10.560;2023-04-25T00:34:30;99829.88;;;7.50;74.62
75991;BME280;64673;52.276;10.560;2023-04-25T00:36:55;99827.72;;;7.52;74.53
75991;BME280;64673;52.276;10.560;2023-04-25T00:39:22;99833.63;;;7.49;75.09
75991;BME280;64673;52.276;10.560;2023-04-25T00:41:47;99826.09;;;7.30;75.55
75991;BME280;64673;52.276;10.560;2023-04-25T00:44:14;99834.41;;;7.29;75.55
75991;BME280;64673;52.276;10.560;2023-04-25T00:46:42;99832.53;;;7.40;76.35
75991;BME280;64673;52.276;10.560;2023-04-25T00:49:07;99831.19;;;7.42;75.47
75991;BME280;64673;52.276;10.560;2023-04-25T00:51:33;99847.84;;;7.49;75.26
75991;BME280;64673;52.276;10.560;2023-04-25T00:53:59;99842.72;;;7.38;75.78
75991;BME280;64673;52.276;10.560;2023-04-25T00:56:24;99843.53;;;7.38;75.46
75991;BME280;64673;52.276;10.560;2023-04-25T00:58:53;99831.97;;;7.32;75.81
75991;BME280;64673;52.276;10.560;2023-04-25T01:01:19;99828.78;;;7.46;75.93
75991;BME280;64673;52.276;10.560;2023-04-25T01:03:46;99832.53;;;7.45;75.62
75991;BME280;64673;52.276;10.560;2023-04-25T01:06:12;99823.94;;;7.43;75.74
75991;BME280;64673;52.276;10.560;2023-04-25T01:08:38;99829.84;;;7.55;75.75
75991;BME280;64673;52.276;10.560;2023-04-25T01:11:04;99817.78;;;7.52;75.48
75991;BME280;64673;52.276;10.560;2023-04-25T01:13:30;99821.81;;;7.45;75.13
75991;BME280;64673;52.276;10.560;2023-04-25T01:15:57;99828.78;;;7.41;75.44
75991;BME280;64673;52.276;10.560;2023-04-25T01:18:23;99825.03;;;7.47;75.68
75991;BME280;64673;52.276;10.560;2023-04-25T01:20:50;99830.38;;;7.37;75.53
75991;BME280;64673;52.276;10.560;2023-04-25T01:23:16;99827.69;;;7.31;75.46
75991;BME280;64673;52.276;10.560;2023-04-25T01:25:41;99817.75;;;7.32;75.39
75991;BME280;64673;52.276;10.560;2023-04-25T01:28:07;99836.25;;;7.23;75.52
75991;BME280;64673;52.276;10.560;2023-04-25T01:30:33;99834.13;;;7.25;75.49
75991;BME280;64673;52.276;10.560;2023-04-25T01:33:00;99827.97;;;7.35;75.37
75991;BME280;64673;52.276;10.560;2023-04-25T01:35:25;99835.47;;;7.33;74.75
75991;BME280;64673;52.276;10.560;2023-04-25T01:37:51;99828.22;;;7.23;75.68
75991;BME280;64673;52.276;10.560;2023-04-25T01:40:17;99827.44;;;7.28;75.89
75991;BME280;64673;52.276;10.560;2023-04-25T01:42:44;99828.75;;;7.25;75.61
75991;BME280;64673;52.276;10.560;2023-04-25T01:45:11;99833.59;;;7.28;76.01
75991;BME280;64673;52.276;10.560;2023-04-25T01:47:38;99839.47;;;7.15;75.98
75991;BME280;64673;52.276;10.560;2023-04-25T01:50:05;99832.47;;;7.14;76.29
75991;BME280;64673;52.276;10.560;2023-04-25T01:52:31;99841.88;;;7.17;76.25
75991;BME280;64673;52.276;10.560;2023-04-25T01:54:57;99835.41;;;7.13;76.97
75991;BME280;64673;52.276;10.560;2023-04-25T01:57:24;99841.88;;;7.17;77.01
75991;BME280;64673;52.276;10.560;2023-04-25T01:59:50;99843.75;;;7.21;76.31
75991;BME280;64673;52.276;10.560;2023-04-25T02:02:15;99845.88;;;7.14;76.56
75991;BME280;64673;52.276;10.560;2023-04-25T02:04:40;99845.88;;;7.09;76.72
75991;BME280;64673;52.276;10.560;2023-04-25T02:07:06;99838.38;;;7.16;76.57
75991;BME280;64673;52.276;10.560;2023-04-25T02:09:31;99835.16;;;7.09;76.44
75991;BME280;64673;52.276;10.560;2023-04-25T02:11:57;99847.22;;;7.07;76.83
75991;BME280;64673;52.276;10.560;2023-04-25T02:14:22;99849.06;;;7.01;77.48
75991;BME280;64673;52.276;10.560;2023-04-25T02:16:48;99850.69;;;7.07;77.59
75991;BME280;64673;52.276;10.560;2023-04-25T02:19:13;99845.31;;;7.02;77.13
75991;BME280;64673;52.276;10.560;2023-04-25T02:21:38;99845.31;;;7.02;77.94
75991;BME280;64673;52.276;10.560;2023-04-25T02:24:04;99856.59;;;6.99;77.60
75991;BME280;64673;52.276;10.560;2023-04-25T02:26:30;99860.03;;;6.99;77.46
75991;BME280;64673;52.276;10.560;2023-04-25T02:28:56;99846.41;;;7.11;77.30
75991;BME280;64673;52.276;10.560;2023-04-25T02:31:21;99844.78;;;7.10;78.19
75991;BME280;64673;52.276;10.560;2023-04-25T02:33:47;99842.13;;;7.10;77.51
75991;BME280;64673;52.276;10.560;2023-04-25T02:36:12;99838.88;;;6.98;78.06
75991;BME280;64673;52.276;10.560;2023-04-25T02:38:38;99834.03;;;6.95;77.85
75991;BME280;64673;52.276;10.560;2023-04-25T02:41:04;99841.84;;;7.07;78.38
75991;BME280;64673;52.276;10.560;2023-04-25T02:43:29;99835.97;;;7.10;77.60
75991;BME280;64673;52.276;10.560;2023-04-25T02:45:54;99837.03;;;7.14;78.00
75991;BME280;64673;52.276;10.560;2023-04-25T02:48:20;99842.13;;;7.15;78.07
75991;BME280;64673;52.276;10.560;2023-04-25T02:50:45;99835.63;;;6.91;79.03
75991;BME280;64673;52.276;10.560;2023-04-25T02:53:11;99838.34;;;7.01;78.47
75991;BME280;64673;52.276;10.560;2023-04-25T02:55:36;99836.44;;;6.86;79.30
75991;BME280;64673;52.276;10.560;2023-04-25T02:58:01;99830.81;;;6.93;79.55
75991;BME280;64673;52.276;10.560;2023-04-25T03:00:27;99835.13;;;6.99;79.19
75991;BME280;64673;52.276;10.560;2023-04-25T03:02:52;99843.66;;;6.91;80.18
75991;BME280;64673;52.276;10.560;2023-04-25T03:05:18;99847.38;;;6.80;80.40
75991;BME280;64673;52.276;10.560;2023-04-25T03:07:43;99843.63;;;6.81;80.63
75991;BME280;64673;52.276;10.560;2023-04-25T03:10:10;99841.50;;;6.83;81.28
75991;BME280;64673;52.276;10.560;2023-04-25T03:12:36;99842.56;;;6.77;80.99
75991;BME280;64673;52.276;10.560;2023-04-25T03:15:01;99837.75;;;6.84;80.61
75991;BME280;64673;52.276;10.560;2023-04-25T03:17:27;99844.47;;;6.91;80.84
75991;BME280;64673;52.276;10.560;2023-04-25T03:19:52;99843.63;;;6.81;81.19
75991;BME280;64673;52.276;10.560;2023-04-25T03:22:17;99842.25;;;6.73;81.57
75991;BME280;64673;52.276;10.560;2023-04-25T03:24:43;99844.22;;;6.88;81.83
75991;BME280;64673;52.276;10.560;2023-04-25T03:27:08;99844.66;;;6.70;83.41
75991;BME280;64673;52.276;10.560;2023-04-25T03:29:34;99845.50;;;6.75;83.34
75991;BME280;64673;52.276;10.560;2023-04-25T03:31:59;99844.09;;;6.68;83.73
75991;BME280;64673;52.276;10.560;2023-04-25T03:34:24;99856.38;;;6.58;84.79
75991;BME280;64673;52.276;10.560;2023-04-25T03:36:52;99851.06;;;6.69;85.10
75991;BME280;64673;52.276;10.560;2023-04-25T03:39:17;99863.31;;;6.49;85.36
75991;BME280;64673;52.276;10.560;2023-04-25T03:41:42;99869.97;;;6.47;86.22
75991;BME280;64673;52.276;10.560;2023-04-25T03:44:08;99872.34;;;6.38;88.54
75991;BME280;64673;52.276;10.560;2023-04-25T03:46:33;99873.59;;;6.25;89.09
75991;BME280;64673;52.276;10.560;2023-04-25T03:48:58;99867.09;;;6.11;91.09
75991;BME280;64673;52.276;10.560;2023-04-25T03:51:24;99879.16;;;6.14;91.17
75991;BME280;64673;52.276;10.560;2023-04-25T03:53:51;99893.06;;;6.16;91.15
75991;BME280;64673;52.276;10.560;2023-04-25T03:56:16;99892.72;;;6.02;90.66
75991;BME280;64673;52.276;10.560;2023-04-25T03:58:41;99903.25;;;5.87;89.56
75991;BME280;64673;52.276;10.560;2023-04-25T04:01:07;99903.25;;;5.87;89.61
75991;BME280;64673;52.276;10.560;2023-04-25T04:03:34;99905.22;;;5.92;88.30
75991;BME280;64673;52.276;10.560;2023-04-25T04:06:01;99906.28;;;5.96;88.43
75991;BME280;64673;52.276;10.560;2023-04-25T04:08:26;99911.41;;;5.97;88.60
75991;BME280;64673;52.276;10.560;2023-04-25T04:10:51;99921.06;;;5.98;87.90
75991;BME280;64673;52.276;10.560;2023-04-25T04:13:17;99911.47;;;6.02;86.72
75991;BME280;64673;52.276;10.560;2023-04-25T04:15:42;99907.91;;;5.97;88.84
75991;BME280;64673;52.276;10.560;2023-04-25T04:18:07;99918.50;;;5.86;87.67
75991;BME280;64673;52.276;10.560;2023-04-25T04:20:33;99918.06;;;5.95;87.29
75991;BME280;64673;52.276;10.560;2023-04-25T04:22:58;99928.53;;;5.96;87.16
75991;BME280;64673;52.276;10.560;2023-04-25T04:25:23;99930.00;;;5.87;88.31
75991;BME280;64673;52.276;10.560;2023-04-25T04:27:50;99933.16;;;5.79;85.69
75991;BME280;64673;52.276;10.560;2023-04-25T04:30:23;99937.22;;;5.86;85.90
75991;BME280;64673;52.276;10.560;2023-04-25T04:32:55;99926.53;;;5.86;87.29
75991;BME280;64673;52.276;10.560;2023-04-25T04:35:20;99937.09;;;5.98;86.67
75991;BME280;64673;52.276;10.560;2023-04-25T04:37:46;99945.25;;;5.86;87.54
75991;BME280;64673;52.276;10.560;2023-04-25T04:40:13;99951.13;;;5.83;86.42
75991;BME280;64673;52.276;10.560;2023-04-25T04:42:41;99952.19;;;5.82;86.97
75991;BME280;64673;52.276;10.560;2023-04-25T04:45:06;99959.25;;;5.88;86.52
75991;BME280;64673;52.276;10.560;2023-04-25T04:47:32;99966.09;;;5.84;86.75
75991;BME280;64673;52.276;10.560;2023-04-25T04:49:59;99960.34;;;5.93;85.84
75991;BME280;64673;52.276;10.560;2023-04-25T04:52:24;99967.06;;;5.95;85.64
75991;BME280;64673;52.276;10.560;2023-04-25T04:54:49;99964.19;;;6.02;85.72
75991;BME280;64673;52.276;10.560;2023-04-25T04:57:15;99967.28;;;5.94;84.64
75991;BME280;64673;52.276;10.560;2023-04-25T04:59:41;99970.25;;;5.92;84.65
75991;BME280;64673;52.276;10.560;2023-04-25T05:02:07;99974.84;;;5.97;85.59
75991;BME280;64673;52.276;10.560;2023-04-25T05:04:32;99972.22;;;6.02;85.33
75991;BME280;64673;52.276;10.560;2023-04-25T05:06:58;99974.97;;;6.12;85.21
75991;BME280;64673;52.276;10.560;2023-04-25T05:09:23;99967.44;;;6.09;84.78
75991;BME280;64673;52.276;10.560;2023-04-25T05:11:51;99974.13;;;6.06;84.81
75991;BME280;64673;52.276;10.560;2023-04-25T05:14:16;99970.69;;;6.11;84.37
75991;BME280;64673;52.276;10.560;2023-04-25T05:16:43;99977.56;;;6.34;83.93
75991;BME280;64673;52.276;10.560;2023-04-25T05:19:08;99978.50;;;6.17;83.49
75991;BME280;64673;52.276;10.560;2023-04-25T05:21:34;99975.56;;;6.19;83.45
75991;BME280;64673;52.276;10.560;2023-04-25T05:24:00;99983.09;;;6.22;83.11
75991;BME280;64673;52.276;10.560;2023-04-25T05:26:25;99979.28;;;6.13;82.00
75991;BME280;64673;52.276;10.560;2023-04-25T05:28:51;99986.19;;;6.09;82.61
75991;BME280;64673;52.276;10.560;2023-04-25T05:31:16;100003.38;;;6.13;81.66
75991;BME280;64673;52.276;10.560;2023-04-25T05:33:42;99985.78;;;6.22;81.32
75991;BME280;64673;52.276;10.560;2023-04-25T05:36:07;99989.47;;;6.16;80.05
75991;BME280;64673;52.276;10.560;2023-04-25T05:38:33;99992.78;;;6.28;80.93
75991;BME280;64673;52.276;10.560;2023-04-25T05:40:58;99997.50;;;6.16;79.82
75991;BME280;64673;52.276;10.560;2023-04-25T05:43:23;100000.81;;;6.28;80.29
75991;BME280;64673;52.276;10.560;2023-04-25T05:45:49;100010.00;;;6.37;80.03
75991;BME280;64673;52.276;10.560;2023-04-25T05:48:14;100011.88;;;6.37;79.65
75991;BME280;64673;52.276;10.560;2023-04-25T05:50:39;100015.91;;;6.39;78.97
75991;BME280;64673;52.276;10.560;2023-04-25T05:53:05;100019.72;;;6.43;78.99
75991;BME280;64673;52.276;10.560;2023-04-25T05:55:31;100019.16;;;6.41;78.13
75991;BME280;64673;52.276;10.560;2023-04-25T05:57:56;100022.94;;;6.45;76.97
75991;BME280;64673;52.276;10.560;2023-04-25T06:00:21;100026.06;;;6.37;75.90
75991;BME280;64673;52.276;10.560;2023-04-25T06:02:47;100028.06;;;6.52;76.29
75991;BME280;64673;52.276;10.560;2023-04-25T06:05:13;100030.00;;;6.56;74.86
75991;BME280;64673;52.276;10.560;2023-04-25T06:07:38;100040.72;;;6.56;73.95
75991;BME280;64673;52.276;10.560;2023-04-25T06:10:04;100031.81;;;6.51;74.96
75991;BME280;64673;52.276;10.560;2023-04-25T06:12:32;100033.19;;;6.53;74.24
75991;BME280;64673;52.276;10.560;2023-04-25T06:14:58;100038.28;;;6.55;74.70
75991;BME280;64673;52.276;10.560;2023-04-25T06:17:23;100040.22;;;6.33;73.52
75991;BME280;64673;52.276;10.560;2023-04-25T06:19:49;100041.63;;;6.40;74.21
75991;BME280;64673;52.276;10.560;2023-04-25T06:22:14;100043.16;;;6.31;72.58
75991;BME280;64673;52.276;10.560;2023-04-25T06:24:39;100038.94;;;6.35;73.59
75991;BME280;64673;52.276;10.560;2023-04-25T06:27:05;100038.16;;;6.40;73.07
75991;BME280;64673;52.276;10.560;2023-04-25T06:29:30;100040.50;;;6.36;71.16
75991;BME280;64673;52.276;10.560;2023-04-25T06:31:55;100048.63;;;6.46;70.70
75991;BME280;64673;52.276;10.560;2023-04-25T06:34:22;100051.50;;;6.67;71.17
75991;BME280;64673;52.276;10.560;2023-04-25T06:36:47;100053.09;;;6.68;69.83
75991;BME280;64673;52.276;10.560;2023-04-25T06:39:12;100059.63;;;6.77;70.53
75991;BME280;64673;52.276;10.560;2023-04-25T06:41:38;100060.88;;;6.64;67.44
75991;BME280;64673;52.276;10.560;2023-04-25T06:44:03;100065.34;;;6.58;67.99
75991;BME280;64673;52.276;10.560;2023-04-25T06:46:28;100062.72;;;6.64;68.50
75991;BME280;64673;52.276;10.560;2023-04-25T06:48:54;100067.50;;;6.56;66.42
75991;BME280;64673;52.276;10.560;2023-04-25T06:51:20;100067.50;;;6.56;67.13
75991;BME280;64673;52.276;10.560;2023-04-25T06:53:45;100060.81;;;6.59;67.43
75991;BME280;64673;52.276;10.560;2023-04-25T06:56:10;100076.53;;;6.50;67.73
75991;BME280;64673;52.276;10.560;2023-04-25T06:58:36;100065.81;;;6.77;67.96
75991;BME280;64673;52.276;10.560;2023-04-25T07:01:01;100070.25;;;6.98;65.60
75991;BME280;64673;52.276;10.560;2023-04-25T07:03:26;100063.78;;;6.94;63.38
75991;BME280;64673;52.276;10.560;2023-04-25T07:05:52;100065.91;;;6.92;62.27
75991;BME280;64673;52.276;10.560;2023-04-25T07:08:17;100072.19;;;7.08;59.99
75991;BME280;64673;52.276;10.560;2023-04-25T07:10:42;100067.06;;;7.07;59.75
75991;BME280;64673;52.276;10.560;2023-04-25T07:13:08;100081.25;;;7.02;60.67
75991;BME280;64673;52.276;10.560;2023-04-25T07:15:33;100071.50;;;6.86;57.92
75991;BME280;64673;52.276;10.560;2023-04-25T07:17:59;100076.53;;;6.77;57.86
75991;BME280;64673;52.276;10.560;2023-04-25T07:20:24;100087.31;;;6.87;57.57
75991;BME280;64673;52.276;10.560;2023-04-25T07:22:49;100081.09;;;6.82;54.67
75991;BME280;64673;52.276;10.560;2023-04-25T07:25:16;100083.84;;;6.87;56.33
75991;BME280;64673;52.276;10.560;2023-04-25T07:27:41;100070.56;;;7.07;55.63
75991;BME280;64673;52.276;10.560;2023-04-25T07:30:07;100082.22;;;7.28;56.07
75991;BME280;64673;52.276;10.560;2023-04-25T07:32:33;100078.75;;;7.27;55.21
75991;BME280;64673;52.276;10.560;2023-04-25T07:34:58;100095.28;;;7.14;55.14
75991;BME280;64673;52.276;10.560;2023-04-25T07:37:23;100089.28;;;7.39;55.01
75991;BME280;64673;52.276;10.560;2023-04-25T07:39:49;100089.47;;;7.32;52.77
75991;BME280;64673;52.276;10.560;2023-04-25T07:42:14;100098.09;;;7.34;50.48
75991;BME280;64673;52.276;10.560;2023-04-25T07:44:39;100091.75;;;7.51;52.45
75991;BME280;64673;52.276;10.560;2023-04-25T07:47:09;100086.34;;;7.46;49.53
75991;BME280;64673;52.276;10.560;2023-04-25T07:49:35;100091.03;;;7.23;50.68
75991;BME280;64673;52.276;10.560;2023-04-25T07:52:02;100112.00;;;7.26;52.10
75991;BME280;64673;52.276;10.560;2023-04-25T07:54:28;100110.44;;;7.35;53.00
75991;BME280;64673;52.276;10.560;2023-04-25T07:56:53;100101.06;;;7.38;53.53
75991;BME280;64673;52.276;10.560;2023-04-25T07:59:19;100107.09;;;7.65;53.17
75991;BME280;64673;52.276;10.560;2023-04-25T08:01:44;100094.50;;;7.66;53.97
75991;BME280;64673;52.276;10.560;2023-04-25T08:04:10;100105.81;;;7.78;53.81
75991;BME280;64673;52.276;10.560;2023-04-25T08:06:35;100111.41;;;7.66;54.00
75991;BME280;64673;52.276;10.560;2023-04-25T08:09:01;100121.13;;;7.78;54.47
75991;BME280;64673;52.276;10.560;2023-04-25T08:11:26;100110.53;;;7.51;52.09
75991;BME280;64673;52.276;10.560;2023-04-25T08:13:52;100112.72;;;7.64;51.84
75991;BME280;64673;52.276;10.560;2023-04-25T08:16:17;100132.25;;;7.49;52.59
75991;BME280;64673;52.276;10.560;2023-04-25T08:18:42;100125.53;;;7.47;52.56
75991;BME280;64673;52.276;10.560;2023-04-25T08:21:08;100126.19;;;7.74;53.92
75991;BME280;64673;52.276;10.560;2023-04-25T08:23:36;100129.75;;;7.85;52.94
75991;BME280;64673;52.276;10.560;2023-04-25T08:26:02;100127.63;;;7.92;53.23
75991;BME280;64673;52.276;10.560;2023-04-25T08:28:27;100129.34;;;8.13;53.43
75991;BME280;64673;52.276;10.560;2023-04-25T08:30:53;100127.91;;;7.95;52.79
75991;BME280;64673;52.276;10.560;2023-04-25T08:33:19;100127.63;;;7.92;53.85
75991;BME280;64673;52.276;10.560;2023-04-25T08:35:44;100128.78;;;8.16;53.47
75991;BME280;64673;52.276;10.560;2023-04-25T08:38:10;100139.19;;;7.92;53.88
75991;BME280;64673;52.276;10.560;2023-04-25T08:40:38;100160.03;;;7.75;54.63
75991;BME280;64673;52.276;10.560;2023-04-25T08:43:04;100145.34;;;7.41;55.44
75991;BME280;64673;52.276;10.560;2023-04-25T08:45:31;100152.06;;;7.43;56.86
75991;BME280;64673;52.276;10.560;2023-04-25T08:47:58;100153.59;;;7.29;58.26
75991;BME280;64673;52.276;10.560;2023-04-25T08:50:24;100149.41;;;7.48;60.30
75991;BME280;64673;52.276;10.560;2023-04-25T08:52:52;100168.34;;;7.31;59.54
75991;BME280;64673;52.276;10.560;2023-04-25T08:55:18;100173.25;;;7.40;60.58
75991;BME280;64673;52.276;10.560;2023-04-25T08:57:44;100186.75;;;7.55;60.10
75991;BME280;64673;52.276;10.560;2023-04-25T09:00:11;100170.66;;;7.55;59.66
75991;BME280;64673;52.276;10.560;2023-04-25T09:02:37;100177.25;;;7.84;60.41
75991;BME280;64673;52.276;10.560;2023-04-25T09:05:04;100176.19;;;7.80;58.17
75991;BME280;64673;52.276;10.560;2023-04-25T09:07:30;100176.47;;;7.84;56.48
75991;BME280;64673;52.276;10.560;2023-04-25T09:09:55;100185.56;;;7.78;55.43
75991;BME280;64673;52.276;10.560;2023-04-25T09:12:21;100178.50;;;7.61;55.11
75991;BME280;64673;52.276;10.560;2023-04-25T09:15:03;100195.22;;;7.42;55.14
75991;BME280;64673;52.276;10.560;2023-04-25T09:17:29;100187.31;;;7.57;54.12
75991;BME280;64673;52.276;10.560;2023-04-25T09:19:54;100178.84;;;7.80;53.30
75991;BME280;64673;52.276;10.560;2023-04-25T09:22:20;100184.03;;;8.54;52.66
75991;BME280;64673;52.276;10.560;2023-04-25T09:24:47;100212.97;;;8.37;49.07
75991;BME280;64673;52.276;10.560;2023-04-25T09:27:20;100195.25;;;8.41;49.83
75991;BME280;64673;52.276;10.560;2023-04-25T09:29:47;100197.84;;;8.16;49.12
75991;BME280;64673;52.276;10.560;2023-04-25T09:32:20;100210.94;;;8.07;48.52
75991;BME280;64673;52.276;10.560;2023-04-25T09:35:04;100212.16;;;7.84;48.99
75991;BME280;64673;52.276;10.560;2023-04-25T09:37:30;100218.94;;;7.97;49.92
75991;BME280;64673;52.276;10.560;2023-04-25T09:39:57;100225.19;;;8.07;49.79
75991;BME280;64673;52.276;10.560;2023-04-25T09:42:27;100220.59;;;8.03;49.47
75991;BME280;64673;52.276;10.560;2023-04-25T09:44:55;100229.13;;;7.95;49.42
75991;BME280;64673;52.276;10.560;2023-04-25T09:47:23;100222.38;;;7.82;50.08
75991;BME280;64673;52.276;10.560;2023-04-25T09:49:49;100228.88;;;7.96;49.89
75991;BME280;64673;52.276;10.560;2023-04-25T09:52:16;100227.09;;;8.12;49.96
75991;BME280;64673;52.276;10.560;2023-04-25T09:54:42;100232.34;;;7.92;50.45
75991;BME280;64673;52.276;10.560;2023-04-25T09:57:22;100238.59;;;8.07;50.84
75991;BME280;64673;52.276;10.560;2023-04-25T10:02:19;100243.34;;;7.90;51.67
75991;BME280;64673;52.276;10.560;2023-04-25T10:04:48;100234.50;;;7.90;52.42
75991;BME280;64673;52.276;10.560;2023-04-25T10:07:14;100235.66;;;8.04;51.62
75991;BME280;64673;52.276;10.560;2023-04-25T10:09:40;100248.78;;;8.05;50.53
75991;BME280;64673;52.276;10.560;2023-04-25T10:12:07;100244.63;;;8.25;52.27
75991;BME280;64673;52.276;10.560;2023-04-25T10:14:33;100247.84;;;8.27;50.79
75991;BME280;64673;52.276;10.560;2023-04-25T10:16:59;100260.84;;;8.45;50.45
75991;BME280;64673;52.276;10.560;2023-04-25T10:19:27;100245.13;;;8.22;50.78
75991;BME280;64673;52.276;10.560;2023-04-25T10:22:13;100253.56;;;8.40;51.33
75991;BME280;64673;52.276;10.560;2023-04-25T10:24:40;100247.81;;;8.22;50.35
75991;BME280;64673;52.276;10.560;2023-04-25T10:27:07;100257.88;;;8.36;50.92
75991;BME280;64673;52.276;10.560;2023-04-25T10:29:32;100256.88;;;8.63;50.71
75991;BME280;64673;52.276;10.560;2023-04-25T10:31:58;100256.13;;;8.20;50.22
75991;BME280;64673;52.276;10.560;2023-04-25T10:34:25;100264.84;;;8.32;50.64
75991;BME280;64673;52.276;10.560;2023-04-25T10:37:03;100260.66;;;8.57;51.83
75991;BME280;64673;52.276;10.560;2023-04-25T10:39:28;100259.69;;;8.31;50.76
75991;BME280;64673;52.276;10.560;2023-04-25T10:41:57;100260.81;;;8.35;51.47
75991;BME280;64673;52.276;10.560;2023-04-25T10:44:27;100250.88;;;8.40;51.55
75991;BME280;64673;52.276;10.560;2023-04-25T10:46:58;100239.22;;;8.92;50.59
75991;BME280;64673;52.276;10.560;2023-04-25T10:49:34;100242.66;;;8.72;49.39
75991;BME280;64673;52.276;10.560;2023-04-25T10:52:13;100259.84;;;8.56;49.39
75991;BME280;64673;52.276;10.560;2023-04-25T10:54:52;100252.09;;;8.75;49.56
75991;BME280;64673;52.276;10.560;2023-04-25T10:57:30;100255.50;;;8.50;45.86
75991;BME280;64673;52.276;10.560;2023-04-25T11:00:22;100266.28;;;8.60;44.98
75991;BME280;64673;52.276;10.560;2023-04-25T11:02:58;100259.06;;;8.71;45.65
75991;BME280;64673;52.276;10.560;2023-04-25T11:07:53;100260.34;;;8.58;45.62
75991;BME280;64673;52.276;10.560;2023-04-25T11:10:26;100255.22;;;8.52;45.33
75991;BME280;64673;52.276;10.560;2023-04-25T11:12:52;100266.31;;;8.65;45.80
75991;BME280;64673;52.276;10.560;2023-04-25T11:15:17;100255.78;;;8.59;45.97
75991;BME280;64673;52.276;10.560;2023-04-25T11:17:42;100260.38;;;8.63;46.73
75991;BME280;64673;52.276;10.560;2023-04-25T11:20:10;100278.19;;;8.85;46.94
75991;BME280;64673;52.276;10.560;2023-04-25T11:22:38;100275.41;;;8.59;47.71
75991;BME280;64673;52.276;10.560;2023-04-25T11:25:10;100275.44;;;8.64;47.75
75991;BME280;64673;52.276;10.560;2023-04-25T11:27:56;100283.16;;;8.46;47.69
75991;BME280;64673;52.276;10.560;2023-04-25T11:30:23;100290.38;;;8.40;48.43
75991;BME280;64673;52.276;10.560;2023-04-25T11:32:49;100283.44;;;8.44;48.62
75991;BME280;64673;52.276;10.560;2023-04-25T11:35:15;100291.25;;;8.08;47.97
75991;BME280;64673;52.276;10.560;2023-04-25T11:37:42;100285.94;;;8.14;48.85
75991;BME280;64673;52.276;10.560;2023-04-25T11:40:08;100295.00;;;8.02;48.72
75991;BME280;64673;52.276;10.560;2023-04-25T11:42:44;100305.69;;;7.97;50.36
75991;BME280;64673;52.276;10.560;2023-04-25T11:45:10;100298.88;;;7.85;52.17
75991;BME280;64673;52.276;10.560;2023-04-25T11:47:36;100309.34;;;7.81;52.75
75991;BME280;64673;52.276;10.560;2023-04-25T11:50:06;100314.97;;;7.80;53.27
75991;BME280;64673;52.276;10.560;2023-04-25T11:52:37;100296.38;;;8.10;52.73
75991;BME280;64673;52.276;10.560;2023-04-25T11:55:07;100298.63;;;8.28;52.67
75991;BME280;64673;52.276;10.560;2023-04-25T11:57:33;100303.75;;;8.30;53.11
75991;BME280;64673;52.276;10.560;2023-04-25T12:02:40;100299.09;;;8.57;52.04
75991;BME280;64673;52.276;10.560;2023-04-25T12:05:07;100294.13;;;8.39;52.39
75991;BME280;64673;52.276;10.560;2023-04-25T12:07:33;100301.22;;;8.60;52.18
75991;BME280;64673;52.276;10.560;2023-04-25T12:09:59;100300.63;;;8.43;52.13
75991;BME280;64673;52.276;10.560;2023-04-25T12:12:27;100303.50;;;8.89;50.10
75991;BME280;64673;52.276;10.560;2023-04-25T12:15:08;100301.16;;;9.28;47.20
75991;BME280;64673;52.276;10.560;2023-04-25T12:17:34;100306.28;;;9.29;45.99
75991;BME280;64673;52.276;10.560;2023-04-25T12:20:06;100301.09;;;9.02;45.57
75991;BME280;64673;52.276;10.560;2023-04-25T12:22:32;100301.81;;;8.72;45.88
75991;BME280;64673;52.276;10.560;2023-04-25T12:24:58;100295.44;;;8.94;47.57
75991;BME280;64673;52.276;10.560;2023-04-25T12:27:25;100308.38;;;9.12;46.29
75991;BME280;64673;52.276;10.560;2023-04-25T12:29:51;100298.75;;;9.41;46.34
75991;BME280;64673;52.276;10.560;2023-04-25T12:32:17;100318.16;;;9.69;43.74
75991;BME280;64673;52.276;10.560;2023-04-25T12:34:43;100307.63;;;9.93;44.08
75991;BME280;64673;52.276;10.560;2023-04-25T12:37:08;100313.28;;;9.55;42.09
75991;BME280;64673;52.276;10.560;2023-04-25T12:39:34;100309.50;;;9.26;42.56
75991;BME280;64673;52.276;10.560;2023-04-25T12:41:59;100328.25;;;9.01;43.00
75991;BME280;64673;52.276;10.560;2023-04-25T12:44:25;100321.00;;;9.01;42.91
75991;BME280;64673;52.276;10.560;2023-04-25T12:46:50;100318.88;;;9.08;44.80
75991;BME280;64673;52.276;10.560;2023-04-25T12:49:16;100315.88;;;8.95;46.04
75991;BME280;64673;52.276;10.560;2023-04-25T12:51:41;100340.22;;;8.58;47.15
75991;BME280;64673;52.276;10.560;2023-04-25T12:54:07;100339.34;;;8.47;48.74
75991;BME280;64673;52.276;10.560;2023-04-25T12:56:34;100334.00;;;8.52;47.85
75991;BME280;64673;52.276;10.560;2023-04-25T12:58:59;100337.38;;;8.32;45.61